createdAt,value
2022-12-13T00:01:24.742Z,100.00
2022-12-13T00:03:56.628Z,100.00
2022-12-13T00:06:25.555Z,100.00
2022-12-13T00:08:53.432Z,100.00
2022-12-13T00:11:21.112Z,100.00
2022-12-13T00:13:48.612Z,100.00
2022-12-13T00:16:18.003Z,100.00
2022-12-13T00:18:51.075Z,100.00
2022-12-13T00:21:20.452Z,100.00
2022-12-13T00:23:48.294Z,100.00
2022-12-13T00:26:18.397Z,100.00
2022-12-13T00:28:49.187Z,100.00
2022-12-13T00:31:53.588Z,100.00
2022-12-13T00:34:05.047Z,100.00
2022-12-13T00:36:32.382Z,100.00
2022-12-13T00:39:02.710Z,100.00
2022-12-13T00:41:32.469Z,100.00
2022-12-13T00:44:00.195Z,100.00
2022-12-13T00:46:28.293Z,100.00
2022-12-13T00:48:57.732Z,100.00
2022-12-13T00:51:26.176Z,100.00
2022-12-13T00:53:53.820Z,100.00
2022-12-13T00:56:23.547Z,100.00
2022-12-13T00:58:52.306Z,100.00
2022-12-13T01:01:28.509Z,100.00
2022-12-13T01:03:57.864Z,100.00
2022-12-13T01:06:45.614Z,100.00
2022-12-13T01:09:18.978Z,100.00
2022-12-13T01:11:46.731Z,100.00
2022-12-13T01:14:14.838Z,100.00
2022-12-13T01:16:42.234Z,100.00
2022-12-13T01:19:09.669Z,100.00
2022-12-13T01:21:37.109Z,100.00
2022-12-13T01:24:05.838Z,100.00
2022-12-13T01:26:33.718Z,100.00
2022-12-13T01:29:01.704Z,100.00
2022-12-13T01:31:29.398Z,100.00
2022-12-13T01:33:56.792Z,100.00
2022-12-13T01:36:27.409Z,100.00
2022-12-13T01:38:57.974Z,100.00
2022-12-13T01:41:28.288Z,100.00
2022-12-13T01:44:03.741Z,100.00
2022-12-13T01:46:33.354Z,100.00
2022-12-13T01:49:19.365Z,100.00
2022-12-13T01:51:58.300Z,100.00
2022-12-13T01:54:33.431Z,100.00
2022-12-13T01:57:03.837Z,100.00
2022-12-13T01:59:31.545Z,100.00
2022-12-13T02:02:01.020Z,100.00
2022-12-13T02:04:55.423Z,100.00
2022-12-13T02:07:26.937Z,100.00
2022-12-13T02:09:57.411Z,100.00
2022-12-13T02:12:31.340Z,100.00
2022-12-13T02:15:05.765Z,100.00
2022-12-13T02:17:54.653Z,100.00
2022-12-13T02:20:35.640Z,100.00
2022-12-13T02:23:21.033Z,100.00
2022-12-13T02:26:13.949Z,100.00
2022-12-13T02:28:56.389Z,100.00
2022-12-13T02:31:35.722Z,100.00
2022-12-13T02:34:27.392Z,100.00
2022-12-13T02:37:00.696Z,100.00
2022-12-13T02:39:41.476Z,100.00
2022-12-13T02:42:22.683Z,100.00
2022-12-13T02:45:20.362Z,100.00
2022-12-13T02:47:51.784Z,100.00
2022-12-13T02:50:20.344Z,100.00
2022-12-13T02:52:47.863Z,100.00
2022-12-13T02:55:16.526Z,100.00
2022-12-13T02:57:45.696Z,100.00
2022-12-13T03:00:17.365Z,100.00
2022-12-13T03:02:53.632Z,100.00
2022-12-13T03:05:39.510Z,100.00
2022-12-13T03:08:21.522Z,100.00
2022-12-13T03:11:09.228Z,100.00
2022-12-13T03:13:39.623Z,100.00
2022-12-13T03:16:23.543Z,100.00
2022-12-13T03:18:53.281Z,100.00
2022-12-13T03:21:22.877Z,100.00
2022-12-13T03:23:50.219Z,100.00
2022-12-13T03:26:26.208Z,100.00
2022-12-13T03:28:53.801Z,100.00
2022-12-13T03:31:21.370Z,100.00
2022-12-13T03:33:48.923Z,100.00
2022-12-13T03:36:17.142Z,100.00
2022-12-13T03:38:45.223Z,100.00
2022-12-13T03:41:18.915Z,100.00
2022-12-13T03:43:46.401Z,100.00
2022-12-13T03:46:13.884Z,100.00
2022-12-13T03:48:41.421Z,100.00
2022-12-13T03:51:08.840Z,100.00
2022-12-13T03:53:36.220Z,100.00
2022-12-13T03:56:05.401Z,100.00
2022-12-13T03:58:35.381Z,100.00
2022-12-13T04:01:09.414Z,100.00
2022-12-13T04:03:38.091Z,100.00
2022-12-13T04:06:06.248Z,100.00
2022-12-13T04:08:34.427Z,100.00
2022-12-13T04:11:22.146Z,100.00
2022-12-13T04:13:49.468Z,100.00
2022-12-13T04:16:16.847Z,100.00
2022-12-13T04:18:44.266Z,100.00
2022-12-13T04:21:11.662Z,100.00
2022-12-13T04:23:39.069Z,100.00
2022-12-13T04:26:06.525Z,100.00
2022-12-13T04:28:34.014Z,100.00
2022-12-13T04:31:01.323Z,100.00
2022-12-13T04:33:28.732Z,100.00
2022-12-13T04:35:56.100Z,100.00
2022-12-13T04:38:23.389Z,100.00
2022-12-13T04:40:50.783Z,100.00
2022-12-13T04:43:18.278Z,100.00
2022-12-13T04:45:45.660Z,100.00
2022-12-13T04:48:13.721Z,100.00
2022-12-13T04:51:01.042Z,100.00
2022-12-13T04:53:29.743Z,100.00
2022-12-13T04:55:57.214Z,100.00
2022-12-13T04:58:24.820Z,100.00
2022-12-13T05:00:52.310Z,100.00
2022-12-13T05:03:19.636Z,100.00
2022-12-13T05:05:47.023Z,100.00
2022-12-13T05:08:14.477Z,100.00
2022-12-13T05:10:41.781Z,100.00
2022-12-13T05:13:09.146Z,100.00
2022-12-13T05:15:36.496Z,100.00
2022-12-13T05:18:10.216Z,100.00
2022-12-13T05:20:39.300Z,100.00
2022-12-13T05:23:06.746Z,100.00
2022-12-13T05:25:36.933Z,100.00
2022-12-13T05:28:08.759Z,100.00
2022-12-13T05:30:53.058Z,100.00
2022-12-13T05:33:22.537Z,100.00
2022-12-13T05:35:49.965Z,100.00
2022-12-13T05:38:17.587Z,100.00
2022-12-13T05:40:45.308Z,100.00
2022-12-13T05:43:21.545Z,100.00
2022-12-13T05:45:49.329Z,100.00
2022-12-13T05:48:24.448Z,100.00
2022-12-13T05:51:10.619Z,100.00
2022-12-13T05:53:40.751Z,100.00
2022-12-13T05:56:09.377Z,100.00
2022-12-13T05:58:38.287Z,100.00
2022-12-13T06:01:08.528Z,100.00
2022-12-13T06:03:36.373Z,100.00
2022-12-13T06:06:05.327Z,100.00
2022-12-13T06:08:33.086Z,100.00
2022-12-13T06:11:11.875Z,100.00
2022-12-13T06:13:42.791Z,100.00
2022-12-13T06:16:21.687Z,100.00
2022-12-13T06:18:55.915Z,100.00
2022-12-13T06:21:40.676Z,100.00
2022-12-13T06:24:11.156Z,100.00
2022-12-13T06:26:38.588Z,100.00
2022-12-13T06:29:05.922Z,100.00
2022-12-13T06:31:33.252Z,100.00
2022-12-13T06:34:14.879Z,100.00
2022-12-13T06:36:43.257Z,100.00
2022-12-13T06:39:10.652Z,100.00
2022-12-13T06:41:37.998Z,100.00
2022-12-13T06:44:05.748Z,100.00
2022-12-13T06:46:33.414Z,100.00
2022-12-13T06:49:01.401Z,100.00
2022-12-13T06:51:32.518Z,100.00
2022-12-13T06:54:02.480Z,100.00
2022-12-13T06:56:30.663Z,100.00
2022-12-13T06:59:01.977Z,100.00
2022-12-13T07:01:37.790Z,100.00
2022-12-13T07:04:29.978Z,100.00
2022-12-13T07:06:53.866Z,100.00
2022-12-13T07:09:21.265Z,100.00
2022-12-13T07:11:52.271Z,100.00
2022-12-13T07:14:20.142Z,100.00
2022-12-13T07:16:47.561Z,100.00
2022-12-13T07:19:23.431Z,100.00
2022-12-13T07:21:52.201Z,100.00
2022-12-13T07:24:19.654Z,100.00
2022-12-13T07:26:47.327Z,100.00
2022-12-13T07:29:22.651Z,100.00
2022-12-13T07:31:50.419Z,100.00
2022-12-13T07:34:17.889Z,100.00
2022-12-13T07:36:45.281Z,100.00
2022-12-13T07:39:12.610Z,100.00
2022-12-13T07:41:39.952Z,100.00
2022-12-13T07:44:08.008Z,100.00
2022-12-13T07:46:35.498Z,100.00
2022-12-13T07:49:04.080Z,100.00
2022-12-13T07:51:33.081Z,100.00
2022-12-13T07:54:00.818Z,100.00
2022-12-13T07:56:34.331Z,100.00
2022-12-13T07:59:01.819Z,100.00
2022-12-13T08:01:34.842Z,100.00
2022-12-13T08:04:03.513Z,100.00
2022-12-13T08:06:34.405Z,100.00
2022-12-13T08:09:01.867Z,100.00
2022-12-13T08:11:29.241Z,100.00
2022-12-13T08:13:56.597Z,100.00
2022-12-13T08:16:27.157Z,100.00
2022-12-13T08:19:02.306Z,100.00
2022-12-13T08:21:55.346Z,100.00
2022-12-13T08:24:28.444Z,100.00
2022-12-13T08:27:01.888Z,100.00
2022-12-13T08:29:33.273Z,100.00
2022-12-13T08:32:20.439Z,100.00
2022-12-13T08:34:47.799Z,100.00
2022-12-13T08:37:15.135Z,100.00
2022-12-13T08:39:42.479Z,100.00
2022-12-13T08:42:20.052Z,100.00
2022-12-13T08:44:50.282Z,100.00
2022-12-13T08:47:23.036Z,100.00
2022-12-13T08:49:51.340Z,100.00
2022-12-13T08:52:19.493Z,100.00
2022-12-13T08:54:46.898Z,100.00
2022-12-13T08:57:14.241Z,100.00
2022-12-13T08:59:41.599Z,100.00
2022-12-13T09:02:13.535Z,100.00
2022-12-13T09:04:41.021Z,100.00
2022-12-13T09:07:08.817Z,100.00
2022-12-13T09:09:37.097Z,100.00
2022-12-13T09:12:10.471Z,100.00
2022-12-13T09:14:53.366Z,100.00
2022-12-13T09:17:37.131Z,98.44
2022-12-13T09:20:09.937Z,97.67
2022-12-13T09:23:01.121Z,96.57
2022-12-13T09:25:37.330Z,96.38
2022-12-13T09:28:09.499Z,95.93
2022-12-13T09:30:37.696Z,95.38
2022-12-13T09:33:29.549Z,95.54
2022-12-13T09:35:52.911Z,93.91
2022-12-13T09:38:20.328Z,93.48
2022-12-13T09:40:49.311Z,94.23
2022-12-13T09:43:32.194Z,94.08
2022-12-13T09:46:13.053Z,93.09
2022-12-13T09:48:50.461Z,91.84
2022-12-13T09:51:28.303Z,89.97
2022-12-13T09:53:58.038Z,89.27
2022-12-13T09:56:25.440Z,88.74
2022-12-13T09:58:55.409Z,88.12
2022-12-13T10:01:23.822Z,87.22
2022-12-13T10:03:56.075Z,87.65
2022-12-13T10:06:28.706Z,87.11
2022-12-13T10:08:59.359Z,86.61
2022-12-13T10:11:32.609Z,83.27
2022-12-13T10:14:45.943Z,82.85
2022-12-13T10:17:19.207Z,82.36
2022-12-13T10:19:51.849Z,83.18
2022-12-13T10:22:22.969Z,82.66
2022-12-13T10:24:54.879Z,81.74
2022-12-13T10:27:35.249Z,82.46
2022-12-13T10:30:07.109Z,81.70
2022-12-13T10:32:44.576Z,81.91
2022-12-13T10:35:30.413Z,81.99
2022-12-13T10:38:03.198Z,82.55
2022-12-13T10:40:40.620Z,80.87
2022-12-13T10:43:36.084Z,81.91
2022-12-13T10:46:15.902Z,81.88
2022-12-13T10:48:53.079Z,80.65
2022-12-13T10:51:21.891Z,79.84
2022-12-13T10:53:52.601Z,79.88
2022-12-13T10:56:23.923Z,79.53
2022-12-13T10:59:31.184Z,79.12
2022-12-13T11:01:58.868Z,80.15
2022-12-13T11:04:31.515Z,80.11
2022-12-13T11:07:21.962Z,80.59
2022-12-13T11:09:52.470Z,81.64
2022-12-13T11:12:23.069Z,80.64
2022-12-13T11:14:54.480Z,80.69
2022-12-13T11:17:29.709Z,80.99
2022-12-13T11:20:00.746Z,80.63
2022-12-13T11:22:30.556Z,80.19
2022-12-13T11:25:19.640Z,80.37
2022-12-13T11:28:26.459Z,79.45
2022-12-13T11:31:03.512Z,80.39
2022-12-13T11:34:08.181Z,81.07
2022-12-13T11:36:41.458Z,81.69
2022-12-13T11:39:30.849Z,82.43
2022-12-13T11:42:33.967Z,81.54
2022-12-13T11:45:23.497Z,80.60
2022-12-13T11:48:04.764Z,79.69
2022-12-13T11:50:38.695Z,79.72
2022-12-13T11:53:27.632Z,79.96
2022-12-13T11:56:01.373Z,80.31
2022-12-13T12:01:55.821Z,79.76
2022-12-13T12:04:35.377Z,78.49
2022-12-13T12:07:31.694Z,77.94
2022-12-13T12:10:26.945Z,77.16
2022-12-13T12:13:01.640Z,77.00
2022-12-13T12:15:49.109Z,76.24
2022-12-13T12:18:23.152Z,76.77
2022-12-13T12:21:16.426Z,76.46
2022-12-13T12:24:20.299Z,75.98
2022-12-13T12:27:22.628Z,75.21
2022-12-13T12:30:10.869Z,75.03
2022-12-13T12:33:02.600Z,74.67
2022-12-13T12:36:03.115Z,75.18
2022-12-13T12:38:33.232Z,74.76
2022-12-13T12:41:21.558Z,74.23
2022-12-13T12:44:11.788Z,74.67
2022-12-13T12:47:09.150Z,74.15
2022-12-13T12:49:57.482Z,74.64
2022-12-13T12:52:59.000Z,74.18
2022-12-13T12:55:51.570Z,74.32
2022-12-13T12:58:43.668Z,74.44
2022-12-13T13:01:23.231Z,75.19
2022-12-13T13:03:53.397Z,72.65
2022-12-13T13:06:45.389Z,72.50
2022-12-13T13:09:24.511Z,73.07
2022-12-13T13:11:57.583Z,72.42
2022-12-13T13:14:36.975Z,72.89
2022-12-13T13:17:16.520Z,73.45
2022-12-13T13:20:04.140Z,74.18
2022-12-13T13:22:43.038Z,75.03
2022-12-13T13:25:22.671Z,74.13
2022-12-13T13:27:51.269Z,74.09
2022-12-13T13:30:25.713Z,74.27
2022-12-13T13:32:54.964Z,74.38
2022-12-13T13:35:32.046Z,73.71
2022-12-13T13:38:00.665Z,74.19
2022-12-13T13:40:38.627Z,74.76
2022-12-13T13:43:06.114Z,75.57
2022-12-13T13:45:54.126Z,75.12
2022-12-13T13:48:36.410Z,74.97
2022-12-13T13:51:22.266Z,75.95
2022-12-13T13:54:22.404Z,77.27
2022-12-13T13:58:07.564Z,77.14
2022-12-13T14:00:41.123Z,77.30
2022-12-13T14:03:49.177Z,76.23
2022-12-13T14:06:49.700Z,77.13
2022-12-13T14:09:54.533Z,77.83
2022-12-13T14:12:24.579Z,77.74
2022-12-13T14:15:25.588Z,80.76
2022-12-13T14:18:21.112Z,83.35
2022-12-13T14:21:15.833Z,86.12
2022-12-13T14:24:17.261Z,87.79
2022-12-13T14:27:08.304Z,89.21
2022-12-13T14:29:57.637Z,89.67
2022-12-13T14:32:32.842Z,91.38
2022-12-13T14:35:25.297Z,92.28
2022-12-13T14:38:00.705Z,93.95
2022-12-13T14:40:34.979Z,94.04
2022-12-13T14:43:02.894Z,94.10
2022-12-13T14:45:33.303Z,94.46
2022-12-13T14:48:05.849Z,95.01
2022-12-13T14:50:35.575Z,96.11
2022-12-13T14:53:03.398Z,95.51
2022-12-13T14:55:33.379Z,95.73
2022-12-13T14:58:02.642Z,95.57
2022-12-13T15:00:36.138Z,96.69
2022-12-13T15:03:05.482Z,96.69
2022-12-13T15:05:37.410Z,97.48
2022-12-13T15:08:10.680Z,98.03
2022-12-13T15:10:48.519Z,98.95
2022-12-13T15:13:35.562Z,98.02
2022-12-13T15:16:10.609Z,97.76
2022-12-13T15:18:41.579Z,98.82
2022-12-13T15:21:22.824Z,98.23
2022-12-13T15:23:53.981Z,99.62
2022-12-13T15:26:30.327Z,100.00
2022-12-13T15:29:00.695Z,100.00
2022-12-13T15:31:28.874Z,100.00
2022-12-13T15:34:30.382Z,100.00
2022-12-13T15:37:12.311Z,100.00
2022-12-13T15:40:08.617Z,100.00
2022-12-13T15:42:38.463Z,100.00
2022-12-13T15:45:25.685Z,100.00
2022-12-13T15:47:54.345Z,100.00
2022-12-13T15:50:43.802Z,100.00
2022-12-13T15:53:34.003Z,100.00
2022-12-13T15:56:07.908Z,100.00
2022-12-13T15:58:37.905Z,100.00
2022-12-13T16:01:05.638Z,100.00
2022-12-13T16:03:44.586Z,100.00
2022-12-13T16:06:18.272Z,100.00
2022-12-13T16:08:49.444Z,100.00
2022-12-13T16:11:29.591Z,100.00
2022-12-13T16:14:27.022Z,100.00
2022-12-13T16:16:55.265Z,100.00
2022-12-13T16:19:23.042Z,100.00
2022-12-13T16:21:50.457Z,100.00
2022-12-13T16:24:17.866Z,100.00
2022-12-13T16:26:49.012Z,100.00
2022-12-13T16:29:19.510Z,100.00
2022-12-13T16:31:47.319Z,100.00
2022-12-13T16:34:18.176Z,100.00
2022-12-13T16:36:47.489Z,100.00
2022-12-13T16:39:15.601Z,100.00
2022-12-13T16:41:44.848Z,100.00
2022-12-13T16:44:21.983Z,100.00
2022-12-13T16:47:12.941Z,100.00
2022-12-13T16:49:37.104Z,100.00
2022-12-13T16:52:07.546Z,100.00
2022-12-13T16:54:35.596Z,100.00
2022-12-13T16:57:02.933Z,100.00
2022-12-13T16:59:30.530Z,100.00
2022-12-13T17:01:58.075Z,100.00
2022-12-13T17:04:27.411Z,100.00
2022-12-13T17:06:55.546Z,100.00
2022-12-13T17:09:25.002Z,100.00
2022-12-13T17:11:52.574Z,100.00
2022-12-13T17:14:20.017Z,100.00
2022-12-13T17:16:47.923Z,100.00
2022-12-13T17:19:15.669Z,100.00
2022-12-13T17:21:43.103Z,100.00
2022-12-13T17:24:10.541Z,100.00
2022-12-13T17:26:37.829Z,100.00
2022-12-13T17:29:05.251Z,100.00
2022-12-13T17:31:35.644Z,100.00
2022-12-13T17:34:04.411Z,100.00
2022-12-13T17:36:31.896Z,100.00
2022-12-13T17:38:59.758Z,100.00
2022-12-13T17:41:27.175Z,100.00
2022-12-13T17:44:00.082Z,100.00
2022-12-13T17:46:27.531Z,100.00
2022-12-13T17:48:55.021Z,100.00
2022-12-13T17:51:22.498Z,100.00
2022-12-13T17:53:49.780Z,100.00
2022-12-13T17:56:17.860Z,100.00
2022-12-13T17:58:45.906Z,100.00
2022-12-13T18:01:21.649Z,100.00
2022-12-13T18:03:51.953Z,100.00
2022-12-13T18:06:19.672Z,100.00
2022-12-13T18:08:47.821Z,100.00
2022-12-13T18:11:33.089Z,100.00
2022-12-13T18:14:02.765Z,100.00
2022-12-13T18:16:36.518Z,100.00
2022-12-13T18:19:10.961Z,100.00
2022-12-13T18:21:38.377Z,100.00
2022-12-13T18:24:06.940Z,100.00
2022-12-13T18:26:34.587Z,100.00
2022-12-13T18:29:02.848Z,100.00
2022-12-13T18:31:30.282Z,100.00
2022-12-13T18:33:57.766Z,100.00
2022-12-13T18:36:25.781Z,100.00
2022-12-13T18:38:53.406Z,100.00
2022-12-13T18:41:23.350Z,100.00
2022-12-13T18:44:07.928Z,100.00
2022-12-13T18:46:37.511Z,99.77
2022-12-13T18:49:05.914Z,99.85
2022-12-13T18:51:33.932Z,99.27
2022-12-13T18:54:01.310Z,98.92
2022-12-13T18:56:28.770Z,99.34
2022-12-13T18:58:58.186Z,98.20
2022-12-13T19:01:30.351Z,98.69
2022-12-13T19:03:57.840Z,98.15
2022-12-13T19:06:26.988Z,97.28
2022-12-13T19:08:56.763Z,96.46
2022-12-13T19:11:26.155Z,96.53
2022-12-13T19:13:53.780Z,95.61
2022-12-13T19:16:22.223Z,95.56
2022-12-13T19:18:50.120Z,94.86
2022-12-13T19:21:19.393Z,94.21
2022-12-13T19:23:53.206Z,93.64
2022-12-13T19:26:24.373Z,94.16
2022-12-13T19:28:51.775Z,94.20
2022-12-13T19:31:19.263Z,94.16
2022-12-13T19:33:47.718Z,94.00
2022-12-13T19:36:15.738Z,93.40
2022-12-13T19:38:43.705Z,93.99
2022-12-13T19:41:16.575Z,94.04
2022-12-13T19:43:50.631Z,93.60
2022-12-13T19:46:19.796Z,93.54
2022-12-13T19:48:47.437Z,93.22
2022-12-13T19:51:15.079Z,93.63
2022-12-13T19:53:42.603Z,93.44
2022-12-13T19:56:11.665Z,92.43
2022-12-13T19:58:39.765Z,91.99
2022-12-13T20:01:07.925Z,91.32
2022-12-13T20:03:37.065Z,91.38
2022-12-13T20:06:05.915Z,91.38
2022-12-13T20:08:33.507Z,91.78
2022-12-13T20:11:05.751Z,92.16
2022-12-13T20:13:34.740Z,92.70
2022-12-13T20:16:03.082Z,92.54
2022-12-13T20:18:30.751Z,92.78
2022-12-13T20:21:11.577Z,92.60
2022-12-13T20:23:39.732Z,92.18
2022-12-13T20:26:10.305Z,92.62
2022-12-13T20:28:38.143Z,93.28
2022-12-13T20:31:07.784Z,92.91
2022-12-13T20:33:36.027Z,93.16
2022-12-13T20:36:26.126Z,93.18
2022-12-13T20:38:56.128Z,93.82
2022-12-13T20:41:25.406Z,93.66
2022-12-13T20:43:54.087Z,93.79
2022-12-13T20:46:22.324Z,93.62
2022-12-13T20:48:50.215Z,93.52
2022-12-13T20:51:19.880Z,94.30
2022-12-13T20:53:48.839Z,95.12
2022-12-13T20:56:21.365Z,95.80
2022-12-13T20:58:49.152Z,96.89
2022-12-13T21:01:19.779Z,96.93
2022-12-13T21:03:47.260Z,95.92
2022-12-13T21:06:15.115Z,96.14
2022-12-13T21:08:51.631Z,96.64
2022-12-13T21:11:26.103Z,95.89
2022-12-13T21:14:20.888Z,96.05
2022-12-13T21:16:50.565Z,96.15
2022-12-13T21:19:21.328Z,95.82
2022-12-13T21:21:49.146Z,95.48
2022-12-13T21:24:18.076Z,96.39
2022-12-13T21:26:45.688Z,97.21
2022-12-13T21:29:13.801Z,97.14
2022-12-13T21:31:48.806Z,97.18
2022-12-13T21:34:16.918Z,97.66
2022-12-13T21:36:47.116Z,97.13
2022-12-13T21:39:16.023Z,97.69
2022-12-13T21:41:43.408Z,98.43
2022-12-13T21:44:12.167Z,98.80
2022-12-13T21:49:27.106Z,98.86
2022-12-13T21:51:55.067Z,99.56
2022-12-13T21:54:22.738Z,100.00
2022-12-13T21:57:09.088Z,100.00
2022-12-13T21:59:36.526Z,99.84
2022-12-13T22:02:12.464Z,98.95
2022-12-13T22:04:43.492Z,99.10
2022-12-13T22:07:13.392Z,99.80
2022-12-13T22:09:41.160Z,99.90
2022-12-13T22:12:10.404Z,99.42
2022-12-13T22:14:38.402Z,98.89
2022-12-13T22:17:05.765Z,98.58
2022-12-13T22:19:33.254Z,97.19
2022-12-13T22:22:00.781Z,96.77
2022-12-13T22:24:28.225Z,96.23
2022-12-13T22:26:55.550Z,96.96
2022-12-13T22:29:22.987Z,96.07
2022-12-13T22:31:50.631Z,96.58
2022-12-13T22:34:18.125Z,96.25
2022-12-13T22:36:45.477Z,96.47
2022-12-13T22:39:19.577Z,97.17
2022-12-13T22:41:47.643Z,97.53
2022-12-13T22:44:16.272Z,97.75
2022-12-13T22:46:43.718Z,97.34
2022-12-13T22:49:12.036Z,97.51
2022-12-13T22:51:39.759Z,97.16
2022-12-13T22:54:07.765Z,97.98
2022-12-13T22:56:35.489Z,97.31
2022-12-13T22:59:04.168Z,97.22
2022-12-13T23:01:33.386Z,97.36
2022-12-13T23:04:01.080Z,97.74
2022-12-13T23:06:30.584Z,96.80
2022-12-13T23:09:00.162Z,96.46
2022-12-13T23:11:47.641Z,97.07
2022-12-13T23:14:20.237Z,97.28
2022-12-13T23:16:47.749Z,97.92
2022-12-13T23:19:41.063Z,98.10
2022-12-13T23:22:07.198Z,98.26
2022-12-13T23:24:34.576Z,98.33
2022-12-13T23:27:01.954Z,99.08
2022-12-13T23:29:29.287Z,100.00
2022-12-13T23:31:56.950Z,98.55
2022-12-13T23:34:24.260Z,98.43
2022-12-13T23:36:51.718Z,98.97
2022-12-13T23:39:19.015Z,99.37
2022-12-13T23:41:46.500Z,99.54
2022-12-13T23:44:13.876Z,99.28
2022-12-13T23:46:41.259Z,100.00
2022-12-13T23:49:09.858Z,100.00
2022-12-13T23:51:37.918Z,100.00
2022-12-13T23:54:08.274Z,100.00
2022-12-13T23:56:35.722Z,99.22
2022-12-13T23:59:03.148Z,99.78
